Time;durP1;ratioP1;P1;durP2;ratioP2;P2;SDS_P1;SDS_P2;PMS_P1;PMS_P2;Temp;Humidity;BMP_temperature;BMP_pressure;BME280_temperature;BME280_humidity;BME280_pressure;Samples;Min_cycle;Max_cycle;Signal;HPM_P1;HPM_P2
2021/07/30 00:02:02;;;;;;;3.47;1.48;;;17.10;62.90;;;;;;3540101;40;20796;-65
2021/07/30 00:04:27;;;;;;;2.75;1.10;;;17.10;62.90;;;;;;3539922;40;20112;-65
2021/07/30 00:06:53;;;;;;;4.63;1.50;;;17.00;62.30;;;;;;3540510;40;20364;-66
2021/07/30 00:09:19;;;;;;;4.03;1.58;;;17.10;62.90;;;;;;3539919;40;20966;-65
2021/07/30 00:11:44;;;;;;;3.65;1.45;;;17.00;62.80;;;;;;3540259;40;20038;-66
2021/07/30 00:14:10;;;;;;;11.40;1.88;;;17.00;62.90;;;;;;3540666;40;20031;-66
2021/07/30 00:16:36;;;;;;;3.03;1.27;;;17.00;63.00;;;;;;3538974;40;20602;-65
2021/07/30 00:19:02;;;;;;;3.72;1.40;;;17.00;63.10;;;;;;3540754;40;20201;-66
2021/07/30 00:21:28;;;;;;;4.45;1.48;;;16.90;63.10;;;;;;3540026;40;20144;-66
2021/07/30 00:23:54;;;;;;;4.35;1.90;;;16.90;63.10;;;;;;3540669;40;20042;-66
2021/07/30 00:26:20;;;;;;;4.30;1.75;;;16.90;63.10;;;;;;3547918;40;20352;-65
2021/07/30 00:28:46;;;;;;;4.70;1.60;;;16.80;64.10;;;;;;3539314;40;20377;-65
2021/07/30 00:31:11;;;;;;;2.92;1.30;;;16.90;63.70;;;;;;3540876;40;20045;-64
2021/07/30 00:33:37;;;;;;;5.80;1.55;;;16.90;63.20;;;;;;3540897;40;20066;-66
2021/07/30 00:36:03;;;;;;;2.20;1.40;;;16.90;64.00;;;;;;3539283;40;20780;-65
2021/07/30 00:38:29;;;;;;;3.63;1.70;;;16.90;63.80;;;;;;3547573;40;20038;-65
2021/07/30 00:40:54;;;;;;;2.83;1.60;;;16.90;63.90;;;;;;3540283;40;20141;-65
2021/07/30 00:43:20;;;;;;;3.67;1.60;;;16.90;63.60;;;;;;3539698;40;20144;-65
2021/07/30 00:45:46;;;;;;;2.65;1.48;;;16.90;64.10;;;;;;3540441;40;20038;-65
2021/07/30 00:48:14;;;;;;;2.83;1.40;;;16.90;64.30;;;;;;3539194;40;20057;-65
2021/07/30 00:50:42;;;;;;;5.03;1.67;;;16.90;64.20;;;;;;3541217;40;20027;-65
2021/07/30 00:53:08;;;;;;;3.05;1.67;;;16.90;64.20;;;;;;3541495;40;20054;-66
2021/07/30 00:55:36;;;;;;;3.22;1.60;;;16.80;64.50;;;;;;3541236;40;20835;-64
2021/07/30 00:58:02;;;;;;;3.33;1.33;;;16.80;64.60;;;;;;3541329;40;20388;-65
2021/07/30 01:00:29;;;;;;;4.13;1.50;;;16.80;64.50;;;;;;3541188;40;20038;-65
2021/07/30 01:03:00;;;;;;;4.07;1.80;;;16.80;64.50;;;;;;3540746;40;20018;-65
2021/07/30 01:05:31;;;;;;;2.45;1.60;;;16.80;64.70;;;;;;3542480;40;20117;-65
2021/07/30 01:07:57;;;;;;;4.97;1.67;;;16.80;64.60;;;;;;3542373;40;20034;-65
2021/07/30 01:10:23;;;;;;;3.20;1.60;;;16.80;64.90;;;;;;3542019;40;20058;-64
2021/07/30 01:12:49;;;;;;;3.50;1.67;;;16.80;65.00;;;;;;3543348;40;20046;-65
2021/07/30 01:15:15;;;;;;;2.95;1.40;;;16.70;64.90;;;;;;3541662;40;20034;-64
2021/07/30 01:17:41;;;;;;;4.75;1.60;;;16.70;64.80;;;;;;3542892;40;20034;-65
2021/07/30 01:20:10;;;;;;;2.53;1.55;;;16.80;64.80;;;;;;3541932;40;20692;-66
2021/07/30 01:22:57;;;;;;;3.42;1.70;;;16.80;65.00;;;;;;3542934;40;20159;-65
2021/07/30 01:25:23;;;;;;;3.55;1.70;;;16.80;64.80;;;;;;3542439;40;20074;-65
2021/07/30 01:27:50;;;;;;;5.38;1.80;;;16.70;64.80;;;;;;3542153;40;20042;-64
2021/07/30 01:30:17;;;;;;;7.15;1.70;;;16.70;64.60;;;;;;3541647;40;20116;-66
2021/07/30 01:32:43;;;;;;;2.65;1.42;;;16.70;64.40;;;;;;3539995;40;20086;-66
2021/07/30 01:35:09;;;;;;;2.45;1.38;;;16.70;64.40;;;;;;3540951;40;20026;-67
2021/07/30 01:37:35;;;;;;;4.68;1.35;;;16.70;64.50;;;;;;3541230;40;20066;-67
2021/07/30 01:40:02;;;;;;;3.35;1.45;;;16.70;64.40;;;;;;3541206;40;20395;-67
2021/07/30 01:42:28;;;;;;;2.83;1.45;;;16.70;64.20;;;;;;3541521;40;20022;-67
2021/07/30 01:44:54;;;;;;;3.17;1.65;;;16.70;64.60;;;;;;3541301;40;20498;-67
2021/07/30 01:47:21;;;;;;;4.05;1.92;;;16.60;64.70;;;;;;3548904;40;20653;-67
2021/07/30 01:49:50;;;;;;;4.05;1.60;;;16.60;65.20;;;;;;3539265;40;20413;-67
2021/07/30 01:52:17;;;;;;;4.97;1.65;;;16.60;65.80;;;;;;3548221;40;20031;-66
2021/07/30 01:54:44;;;;;;;2.75;1.45;;;16.60;66.10;;;;;;3541564;40;20034;-67
2021/07/30 01:57:10;;;;;;;2.08;1.50;;;16.60;66.00;;;;;;3539673;40;20038;-67
2021/07/30 01:59:36;;;;;;;5.55;1.63;;;16.60;66.30;;;;;;3541297;40;20054;-66
2021/07/30 02:02:02;;;;;;;2.92;1.40;;;16.60;66.50;;;;;;3540602;40;20133;-67
2021/07/30 02:04:28;;;;;;;5.10;1.90;;;16.60;66.60;;;;;;3540931;40;20591;-67
2021/07/30 02:06:53;;;;;;;3.63;1.80;;;16.60;66.40;;;;;;3540954;40;20062;-67
2021/07/30 02:09:19;;;;;;;4.43;1.85;;;16.60;66.50;;;;;;3540354;40;20034;-67
2021/07/30 02:11:50;;;;;;;6.15;2.20;;;16.50;66.50;;;;;;3540978;40;20033;-66
2021/07/30 02:14:17;;;;;;;3.90;1.85;;;16.50;66.40;;;;;;3547255;40;20412;-68
2021/07/30 02:16:47;;;;;;;3.60;1.77;;;16.50;66.20;;;;;;3542121;40;20120;-66
2021/07/30 02:19:14;;;;;;;4.32;1.60;;;16.50;66.30;;;;;;3541360;40;20155;-66
2021/07/30 02:21:40;;;;;;;2.35;1.85;;;16.50;66.20;;;;;;3540809;40;20056;-67
2021/07/30 02:24:07;;;;;;;2.53;1.65;;;16.50;66.50;;;;;;3541155;40;20026;-66
2021/07/30 02:26:33;;;;;;;6.82;1.65;;;16.50;67.10;;;;;;3541753;40;20121;-66
2021/07/30 02:28:59;;;;;;;3.92;1.95;;;16.50;66.60;;;;;;3542180;40;20412;-67
2021/07/30 02:31:25;;;;;;;4.30;1.85;;;16.50;66.60;;;;;;3542066;40;20050;-66
2021/07/30 02:33:51;;;;;;;2.78;1.67;;;16.50;66.40;;;;;;3542618;40;20113;-66
2021/07/30 02:36:17;;;;;;;3.38;1.98;;;16.40;66.40;;;;;;3541998;40;20059;-66
2021/07/30 02:38:43;;;;;;;4.03;1.60;;;16.40;66.50;;;;;;3541374;40;20102;-66
2021/07/30 02:41:08;;;;;;;4.53;1.80;;;16.40;66.40;;;;;;3542086;40;20053;-67
2021/07/30 02:43:34;;;;;;;3.92;1.75;;;16.40;66.50;;;;;;3542219;40;20107;-67
2021/07/30 02:46:00;;;;;;;1.60;1.50;;;16.40;66.80;;;;;;3540295;40;20027;-67
2021/07/30 02:48:26;;;;;;;4.13;1.83;;;16.40;67.00;;;;;;3542193;40;20049;-66
2021/07/30 02:50:51;;;;;;;2.67;1.52;;;16.30;66.80;;;;;;3541570;40;20034;-67
2021/07/30 02:53:17;;;;;;;4.63;1.80;;;16.40;67.00;;;;;;3542352;40;20035;-67
2021/07/30 02:55:46;;;;;;;4.95;1.90;;;16.30;66.90;;;;;;3541748;40;20305;-67
2021/07/30 02:58:12;;;;;;;2.30;1.65;;;16.30;67.00;;;;;;3541565;40;20037;-66
2021/07/30 03:00:38;;;;;;;2.22;1.55;;;16.30;67.50;;;;;;3541570;40;20042;-66
2021/07/30 03:03:04;;;;;;;4.57;1.80;;;16.30;67.40;;;;;;3540369;40;20423;-67
2021/07/30 03:05:29;;;;;;;4.68;2.00;;;16.30;67.80;;;;;;3541747;40;20026;-66
2021/07/30 03:07:55;;;;;;;3.00;1.40;;;16.30;67.90;;;;;;3541137;40;20067;-66
2021/07/30 03:10:21;;;;;;;4.97;1.80;;;16.30;67.80;;;;;;3541584;40;20458;-67
2021/07/30 03:12:46;;;;;;;3.72;1.67;;;16.30;67.50;;;;;;3541490;40;20038;-66
2021/07/30 03:15:12;;;;;;;3.42;1.48;;;16.30;67.40;;;;;;3541545;40;20653;-67
2021/07/30 03:17:38;;;;;;;2.85;1.70;;;16.30;67.40;;;;;;3540979;40;20038;-66
2021/07/30 03:20:07;;;;;;;3.63;1.90;;;16.40;67.40;;;;;;3540989;40;20023;-66
2021/07/30 03:22:33;;;;;;;3.08;1.73;;;16.40;67.50;;;;;;3541998;40;20367;-67
2021/07/30 03:24:59;;;;;;;3.13;1.52;;;16.40;67.50;;;;;;3540015;40;20121;-66
2021/07/30 03:27:26;;;;;;;3.05;1.80;;;16.50;67.20;;;;;;3541847;40;20041;-63
2021/07/30 03:29:52;;;;;;;4.55;1.60;;;16.50;67.40;;;;;;3539778;40;20244;-65
2021/07/30 03:32:18;;;;;;;3.85;1.85;;;16.50;67.40;;;;;;3541003;40;20444;-65
2021/07/30 03:34:45;;;;;;;5.65;1.67;;;16.40;67.60;;;;;;3541047;40;20033;-64
2021/07/30 03:37:12;;;;;;;3.28;2.00;;;16.40;67.60;;;;;;3547802;40;20431;-64
2021/07/30 03:39:38;;;;;;;3.63;1.85;;;16.40;68.00;;;;;;3541285;40;20034;-64
2021/07/30 03:42:04;;;;;;;4.55;1.80;;;16.40;67.80;;;;;;3540345;40;20124;-65
2021/07/30 03:44:29;;;;;;;4.53;1.95;;;16.40;67.60;;;;;;3540887;40;20049;-65
2021/07/30 03:46:55;;;;;;;2.63;1.70;;;16.40;67.60;;;;;;3540676;40;20034;-64
2021/07/30 03:49:21;;;;;;;3.50;2.17;;;16.40;67.40;;;;;;3540528;40;20042;-64
2021/07/30 03:51:47;;;;;;;3.95;2.00;;;16.30;67.40;;;;;;3539696;40;20358;-65
2021/07/30 03:54:12;;;;;;;4.95;1.98;;;16.30;67.80;;;;;;3540956;40;20030;-64
2021/07/30 03:56:39;;;;;;;4.40;1.98;;;16.30;68.10;;;;;;3540792;40;20060;-65
2021/07/30 03:59:05;;;;;;;3.03;1.77;;;16.30;67.80;;;;;;3540768;40;20027;-65
2021/07/30 04:01:31;;;;;;;4.68;2.05;;;16.30;67.40;;;;;;3539484;40;20093;-65
2021/07/30 04:03:56;;;;;;;3.45;2.13;;;16.20;67.70;;;;;;3540848;40;20045;-65
2021/07/30 04:06:22;;;;;;;4.80;2.00;;;16.20;68.20;;;;;;3541224;40;20117;-65
2021/07/30 04:08:48;;;;;;;5.43;1.90;;;16.20;68.40;;;;;;3539731;40;20090;-64
2021/07/30 04:11:13;;;;;;;5.88;2.80;;;16.10;68.90;;;;;;3548162;40;20058;-64
2021/07/30 04:13:39;;;;;;;4.03;2.00;;;16.10;69.00;;;;;;3541333;40;20102;-65
2021/07/30 04:16:06;;;;;;;3.30;1.83;;;16.10;69.40;;;;;;3541281;40;20113;-64
2021/07/30 04:18:32;;;;;;;5.93;2.13;;;16.10;69.70;;;;;;3541362;40;20078;-64
2021/07/30 04:20:58;;;;;;;3.92;2.20;;;16.10;69.70;;;;;;3548748;40;20038;-67
2021/07/30 04:23:24;;;;;;;3.55;1.88;;;16.10;69.90;;;;;;3542345;40;20033;-65
2021/07/30 04:25:50;;;;;;;3.65;1.88;;;16.10;69.90;;;;;;3541800;40;20120;-64
2021/07/30 04:28:15;;;;;;;2.58;1.75;;;16.10;70.10;;;;;;3541240;40;20089;-65
2021/07/30 04:30:41;;;;;;;6.68;2.15;;;16.10;70.40;;;;;;3541653;40;20026;-65
2021/07/30 04:33:09;;;;;;;3.95;1.95;;;16.10;70.60;;;;;;3543265;40;20038;-65
2021/07/30 04:35:36;;;;;;;3.63;1.80;;;16.20;70.70;;;;;;3543174;40;20023;-65
2021/07/30 04:38:02;;;;;;;4.22;2.10;;;16.20;70.60;;;;;;3540220;40;20031;-65
2021/07/30 04:40:28;;;;;;;3.55;2.38;;;16.20;70.60;;;;;;3540957;40;20037;-66
2021/07/30 04:42:58;;;;;;;3.33;2.13;;;16.20;70.60;;;;;;3540432;40;20673;-64
2021/07/30 04:45:24;;;;;;;4.30;2.95;;;16.20;70.80;;;;;;3540535;40;20034;-65
2021/07/30 04:47:50;;;;;;;4.75;1.90;;;16.30;70.70;;;;;;3540367;40;20034;-65
2021/07/30 04:50:16;;;;;;;4.45;2.22;;;16.30;71.00;;;;;;3539944;40;20105;-65
2021/07/30 04:52:42;;;;;;;4.30;2.47;;;16.30;70.80;;;;;;3540856;40;20023;-64
2021/07/30 04:55:08;;;;;;;4.90;1.88;;;16.30;71.70;;;;;;3539215;40;20034;-65
2021/07/30 04:57:33;;;;;;;5.97;1.98;;;16.40;70.90;;;;;;3541229;40;20038;-65
2021/07/30 04:59:59;;;;;;;4.68;2.10;;;16.50;71.00;;;;;;3540277;40;20022;-66
2021/07/30 05:02:25;;;;;;;5.45;2.50;;;16.50;70.80;;;;;;3539182;40;20050;-65
2021/07/30 05:04:54;;;;;;;3.03;1.85;;;16.60;70.80;;;;;;3540241;40;20054;-66
2021/07/30 05:07:21;;;;;;;7.82;2.35;;;16.60;71.10;;;;;;3539877;40;20027;-65
2021/07/30 05:09:47;;;;;;;4.47;2.17;;;16.70;70.60;;;;;;3538784;40;20031;-66
2021/07/30 05:12:12;;;;;;;4.05;2.05;;;16.70;70.60;;;;;;3540166;40;20027;-66
2021/07/30 05:14:38;;;;;;;3.95;2.15;;;16.80;70.90;;;;;;3539277;40;20390;-65
2021/07/30 05:17:04;;;;;;;5.70;2.20;;;16.80;71.00;;;;;;3539685;40;20117;-65
2021/07/30 05:19:30;;;;;;;8.52;2.60;;;16.90;71.00;;;;;;3539431;40;20031;-65
2021/07/30 05:21:55;;;;;;;3.65;2.08;;;16.90;72.00;;;;;;3540095;40;20030;-65
2021/07/30 05:24:21;;;;;;;5.60;2.17;;;17.00;70.70;;;;;;3539436;40;20027;-65
2021/07/30 05:26:47;;;;;;;4.93;2.20;;;17.20;70.30;;;;;;3539621;40;20035;-66
2021/07/30 05:29:12;;;;;;;5.10;2.30;;;17.30;69.80;;;;;;3539855;40;20710;-66
2021/07/30 05:31:38;;;;;;;4.75;2.38;;;17.40;69.60;;;;;;3539911;40;20401;-66
2021/07/30 05:34:04;;;;;;;10.23;2.22;;;17.40;69.10;;;;;;3539883;40;20038;-66
2021/07/30 05:36:30;;;;;;;2.58;1.67;;;17.50;67.20;;;;;;3537894;40;20026;-66
2021/07/30 05:38:55;;;;;;;5.32;2.15;;;17.60;67.20;;;;;;3538767;40;20113;-66
2021/07/30 05:41:22;;;;;;;6.30;3.35;;;17.70;68.70;;;;;;3539419;40;20030;-65
2021/07/30 05:43:49;;;;;;;6.50;4.18;;;17.80;66.80;;;;;;3538505;40;20034;-66
2021/07/30 05:46:19;;;;;;;8.60;3.60;;;18.00;66.00;;;;;;3539146;40;20039;-65
2021/07/30 05:48:45;;;;;;;4.90;3.00;;;18.10;65.30;;;;;;3539507;40;20034;-66
2021/07/30 05:51:12;;;;;;;4.75;2.45;;;18.20;65.10;;;;;;3541053;40;20038;-66
2021/07/30 05:53:39;;;;;;;7.55;2.50;;;18.20;65.00;;;;;;3541011;40;20046;-65
2021/07/30 05:56:05;;;;;;;5.47;2.38;;;18.30;64.30;;;;;;3541067;40;20304;-65
2021/07/30 05:58:34;;;;;;;3.50;2.00;;;18.40;64.50;;;;;;3540579;40;20026;-66
2021/07/30 06:01:00;;;;;;;5.60;2.20;;;18.50;64.90;;;;;;3541212;40;20074;-66
2021/07/30 06:03:26;;;;;;;4.65;2.53;;;18.60;64.90;;;;;;3540522;40;20419;-65
2021/07/30 06:05:51;;;;;;;4.85;1.98;;;18.70;64.10;;;;;;3540321;40;20041;-66
2021/07/30 06:08:17;;;;;;;4.55;2.00;;;18.70;64.10;;;;;;3540627;40;20047;-65
2021/07/30 06:10:43;;;;;;;6.75;2.80;;;18.80;63.50;;;;;;3541480;40;20434;-65
2021/07/30 06:13:09;;;;;;;7.45;2.55;;;18.90;63.10;;;;;;3541307;40;20313;-66
2021/07/30 06:15:35;;;;;;;7.07;2.42;;;19.00;62.20;;;;;;3540232;40;20030;-66
2021/07/30 06:18:02;;;;;;;5.63;2.33;;;19.10;62.60;;;;;;3541279;40;20116;-66
2021/07/30 06:20:28;;;;;;;6.75;2.78;;;19.20;62.20;;;;;;3540971;40;20062;-66
2021/07/30 06:22:54;;;;;;;9.88;2.75;;;19.20;62.20;;;;;;3541693;40;20112;-66
2021/07/30 06:25:19;;;;;;;8.98;2.70;;;19.30;62.10;;;;;;3540502;40;20073;-65
2021/07/30 06:27:45;;;;;;;4.40;2.30;;;19.30;61.50;;;;;;3541618;40;20027;-65
2021/07/30 06:30:12;;;;;;;4.20;2.42;;;19.40;61.30;;;;;;3540315;40;20018;-66
2021/07/30 06:32:38;;;;;;;5.38;2.38;;;19.50;61.40;;;;;;3539531;40;20027;-66
2021/07/30 06:35:05;;;;;;;6.80;2.13;;;19.60;61.40;;;;;;3542305;40;20136;-67
2021/07/30 06:37:35;;;;;;;6.00;2.40;;;19.60;61.00;;;;;;3541838;40;20029;-66
2021/07/30 06:40:01;;;;;;;5.95;2.53;;;19.70;61.10;;;;;;3541165;40;20416;-67
2021/07/30 06:42:27;;;;;;;3.55;1.75;;;19.70;61.20;;;;;;3542295;40;20404;-67
2021/07/30 06:44:53;;;;;;;7.55;2.50;;;19.80;60.60;;;;;;3540684;40;20018;-66
2021/07/30 06:47:20;;;;;;;5.10;2.08;;;19.90;60.00;;;;;;3542353;40;20042;-66
2021/07/30 06:49:45;;;;;;;5.63;2.42;;;20.00;59.90;;;;;;3541603;40;20117;-67
2021/07/30 06:52:11;;;;;;;7.00;2.35;;;20.00;60.40;;;;;;3542044;40;20023;-66
2021/07/30 06:54:37;;;;;;;8.80;1.85;;;20.10;60.80;;;;;;3542079;40;20050;-65
2021/07/30 06:57:03;;;;;;;6.32;3.10;;;20.20;60.00;;;;;;3541158;40;20703;-67
2021/07/30 06:59:29;;;;;;;7.60;2.53;;;20.30;59.60;;;;;;3541866;40;20046;-67
2021/07/30 07:01:55;;;;;;;5.43;2.55;;;20.40;59.10;;;;;;3541558;40;20027;-66
2021/07/30 07:04:21;;;;;;;3.97;2.03;;;20.50;59.10;;;;;;3541723;40;20034;-66
2021/07/30 07:06:48;;;;;;;3.22;2.20;;;20.50;58.20;;;;;;3540753;40;20180;-66
2021/07/30 07:09:17;;;;;;;6.47;2.05;;;20.60;58.20;;;;;;3541043;40;20121;-67
2021/07/30 07:11:43;;;;;;;10.43;2.33;;;20.70;58.30;;;;;;3541308;40;20706;-66
2021/07/30 07:14:09;;;;;;;5.95;2.28;;;20.70;58.00;;;;;;3541462;40;20091;-67
2021/07/30 07:16:36;;;;;;;6.25;2.42;;;20.80;58.40;;;;;;3541656;40;20061;-65
2021/07/30 07:19:02;;;;;;;6.43;2.65;;;20.90;58.10;;;;;;3540967;40;20192;-66
2021/07/30 07:21:27;;;;;;;5.43;2.47;;;21.10;57.30;;;;;;3541758;40;20144;-66
2021/07/30 07:23:53;;;;;;;5.78;2.60;;;21.20;57.00;;;;;;3540241;40;20039;-66
2021/07/30 07:26:19;;;;;;;4.50;2.20;;;21.40;56.00;;;;;;3541716;40;20064;-66
2021/07/30 07:28:45;;;;;;;5.25;2.40;;;21.40;55.10;;;;;;3541941;40;20034;-66
2021/07/30 07:31:11;;;;;;;6.40;2.28;;;21.50;53.90;;;;;;3542842;40;20019;-66
2021/07/30 07:33:37;;;;;;;8.70;2.20;;;21.50;53.90;;;;;;3543187;40;20054;-66
2021/07/30 07:36:04;;;;;;;9.13;2.45;;;21.50;54.20;;;;;;3543004;40;20338;-66
2021/07/30 07:38:30;;;;;;;8.20;2.50;;;21.50;54.00;;;;;;3543005;40;20058;-66
2021/07/30 07:40:56;;;;;;;10.82;2.70;;;21.60;54.30;;;;;;3542564;40;20042;-66
2021/07/30 07:43:21;;;;;;;5.00;2.38;;;21.70;54.10;;;;;;3542379;40;20136;-67
2021/07/30 07:45:47;;;;;;;8.13;2.47;;;21.80;54.00;;;;;;3542785;40;20033;-66
2021/07/30 07:48:13;;;;;;;6.68;2.90;;;21.90;54.60;;;;;;3549409;40;20407;-66
2021/07/30 07:50:39;;;;;;;5.95;2.42;;;22.00;53.00;;;;;;3542187;40;20435;-66
2021/07/30 07:53:15;;;;;;;7.55;2.60;;;22.10;52.80;;;;;;3540049;40;20042;-67
2021/07/30 07:55:41;;;;;;;6.65;2.70;;;22.20;52.40;;;;;;3541107;40;20431;-66
2021/07/30 07:58:06;;;;;;;8.02;2.78;;;22.20;52.90;;;;;;3541139;40;20045;-67
2021/07/30 08:00:32;;;;;;;4.55;2.40;;;22.20;51.10;;;;;;3540256;40;20105;-66
2021/07/30 08:02:58;;;;;;;7.95;2.22;;;22.20;50.90;;;;;;3541314;40;20050;-66
2021/07/30 08:05:23;;;;;;;11.48;2.30;;;22.20;51.20;;;;;;3539156;40;20023;-65
2021/07/30 08:07:49;;;;;;;5.07;2.75;;;22.30;50.30;;;;;;3541586;40;20039;-66
2021/07/30 08:10:15;;;;;;;6.75;2.85;;;22.30;50.30;;;;;;3539365;40;20046;-65
2021/07/30 08:12:41;;;;;;;6.90;2.75;;;22.30;50.60;;;;;;3540818;40;20038;-66
2021/07/30 08:15:08;;;;;;;4.68;2.63;;;22.40;50.10;;;;;;3539510;40;20058;-67
2021/07/30 08:17:35;;;;;;;7.30;2.60;;;22.50;51.00;;;;;;3540992;40;20030;-68
2021/07/30 08:20:01;;;;;;;7.35;2.42;;;22.50;50.90;;;;;;3540621;40;20498;-68
2021/07/30 08:22:27;;;;;;;6.97;2.47;;;22.50;51.50;;;;;;3541000;40;20042;-69
2021/07/30 08:24:52;;;;;;;7.32;2.65;;;22.60;51.60;;;;;;3541015;40;20042;-66
2021/07/30 08:27:18;;;;;;;10.23;2.50;;;22.70;51.10;;;;;;3541423;40;20043;-66
2021/07/30 08:29:44;;;;;;;8.75;2.78;;;22.90;50.10;;;;;;3539113;40;20066;-66
2021/07/30 08:32:10;;;;;;;8.25;2.55;;;23.00;50.10;;;;;;3541597;40;20049;-66
2021/07/30 08:34:38;;;;;;;4.07;2.30;;;23.10;50.20;;;;;;3540139;40;20030;-66
2021/07/30 08:37:04;;;;;;;7.53;3.00;;;23.10;48.70;;;;;;3539401;40;20320;-67
2021/07/30 08:39:29;;;;;;;8.85;2.50;;;23.20;49.20;;;;;;3541524;40;20063;-66
2021/07/30 08:41:59;;;;;;;8.73;2.38;;;23.20;48.60;;;;;;3540826;40;20042;-67
2021/07/30 08:44:26;;;;;;;12.52;2.38;;;23.20;48.20;;;;;;3539478;40;20062;-67
2021/07/30 08:46:52;;;;;;;5.43;2.55;;;23.30;48.90;;;;;;3541233;40;20061;-67
2021/07/30 08:49:18;;;;;;;8.77;2.60;;;23.30;49.30;;;;;;3539977;40;20041;-69
2021/07/30 08:51:48;;;;;;;6.45;2.53;;;23.40;48.90;;;;;;3539033;40;20042;-67
2021/07/30 08:54:14;;;;;;;5.63;2.20;;;23.50;48.70;;;;;;3540371;40;20730;-67
2021/07/30 08:56:40;;;;;;;5.82;2.35;;;23.50;48.50;;;;;;3540560;40;20080;-67
2021/07/30 08:59:09;;;;;;;5.72;2.20;;;23.50;48.30;;;;;;3540395;40;20518;-66
2021/07/30 09:01:36;;;;;;;5.38;2.47;;;23.50;47.70;;;;;;3540195;40;20061;-68
2021/07/30 09:04:02;;;;;;;12.38;4.55;;;23.50;47.90;;;;;;3540383;40;20665;-67
2021/07/30 09:06:27;;;;;;;5.15;2.50;;;23.50;48.00;;;;;;3539864;40;20140;-67
2021/07/30 09:09:02;;;;;;;6.82;2.38;;;23.40;48.10;;;;;;3540211;40;20046;-67
2021/07/30 09:11:34;;;;;;;9.20;4.90;;;23.30;48.00;;;;;;3539944;40;20117;-68
2021/07/30 09:14:05;;;;;;;5.47;2.92;;;23.30;49.00;;;;;;3541363;40;20033;-67
2021/07/30 09:16:47;;;;;;;7.50;2.83;;;23.30;48.90;;;;;;3548282;40;20038;-66
2021/07/30 09:19:13;;;;;;;7.03;3.00;;;23.40;49.40;;;;;;3541571;40;20038;-67
2021/07/30 09:21:39;;;;;;;8.07;2.30;;;23.40;48.20;;;;;;3540214;40;20539;-67
2021/07/30 09:24:09;;;;;;;5.90;2.78;;;23.40;47.90;;;;;;3542894;40;20050;-66
2021/07/30 09:26:41;;;;;;;6.07;2.95;;;23.40;49.00;;;;;;3543555;40;20047;-67
2021/07/30 09:29:15;;;;;;;4.07;2.53;;;23.40;48.40;;;;;;3543318;40;20494;-67
2021/07/30 09:31:43;;;;;;;7.78;2.72;;;23.50;48.00;;;;;;3547619;40;20041;-66
2021/07/30 09:34:23;;;;;;;6.18;2.58;;;23.50;48.40;;;;;;3543076;40;20406;-67
2021/07/30 09:36:51;;;;;;;4.88;2.28;;;23.60;48.20;;;;;;3541932;40;20097;-67
2021/07/30 09:39:20;;;;;;;6.43;2.40;;;23.70;46.90;;;;;;3549670;40;20741;-68
2021/07/30 09:41:54;;;;;;;6.28;2.33;;;23.70;47.20;;;;;;3541474;40;20030;-69
2021/07/30 09:44:20;;;;;;;5.63;2.00;;;23.80;46.40;;;;;;3543007;40;20026;-66
2021/07/30 09:47:04;;;;;;;7.90;2.42;;;23.80;46.00;;;;;;3542990;40;20117;-67
2021/07/30 09:49:57;;;;;;;7.15;2.50;;;23.90;47.00;;;;;;3545584;40;20038;-67
2021/07/30 09:52:25;;;;;;;6.10;2.40;;;24.00;45.50;;;;;;3539484;40;20138;-68
2021/07/30 09:54:55;;;;;;;4.18;1.95;;;24.20;46.10;;;;;;3542808;40;20058;-68
2021/07/30 09:57:23;;;;;;;7.88;2.20;;;24.30;46.40;;;;;;3542670;40;20074;-69
2021/07/30 09:59:50;;;;;;;5.63;2.08;;;24.60;45.80;;;;;;3549303;40;20057;-67
2021/07/30 10:02:18;;;;;;;8.38;2.70;;;24.70;44.90;;;;;;3542379;40;20055;-68
2021/07/30 10:04:49;;;;;;;5.65;2.47;;;24.60;45.70;;;;;;3542006;40;20042;-68
2021/07/30 10:07:17;;;;;;;6.57;2.35;;;24.60;45.40;;;;;;3542384;40;20442;-68
2021/07/30 10:09:54;;;;;;;6.97;2.33;;;24.60;45.10;;;;;;3541710;40;20057;-68
2021/07/30 10:12:20;;;;;;;5.10;3.03;;;24.60;45.60;;;;;;3541440;40;20045;-68
2021/07/30 10:14:47;;;;;;;6.45;2.67;;;24.50;45.00;;;;;;3542840;40;20085;-68
2021/07/30 10:17:15;;;;;;;4.18;2.00;;;24.40;45.10;;;;;;3540785;40;20773;-68
2021/07/30 10:19:42;;;;;;;6.18;2.00;;;24.30;45.40;;;;;;3541584;40;20054;-68
2021/07/30 10:22:10;;;;;;;5.25;2.28;;;24.30;45.90;;;;;;3541859;40;20440;-68
2021/07/30 10:24:44;;;;;;;7.53;2.60;;;24.40;45.90;;;;;;3542397;40;20038;-68
2021/07/30 10:27:11;;;;;;;6.35;3.20;;;24.40;46.50;;;;;;3541827;40;20042;-67
2021/07/30 10:29:59;;;;;;;9.85;3.00;;;24.60;45.30;;;;;;3541779;40;20035;-68
2021/07/30 10:32:56;;;;;;;8.95;2.25;;;24.60;45.10;;;;;;3541162;40;20030;-68
2021/07/30 10:35:28;;;;;;;9.25;3.13;;;24.80;44.30;;;;;;3533033;40;20034;-67
2021/07/30 10:38:15;;;;;;;4.82;2.03;;;25.20;44.60;;;;;;3542503;40;20026;-67
2021/07/30 10:41:04;;;;;;;4.60;2.20;;;25.70;43.90;;;;;;3542353;40;20076;-67
2021/07/30 10:43:33;;;;;;;10.20;2.25;;;25.80;43.20;;;;;;3542590;40;20167;-66
2021/07/30 10:46:05;;;;;;;5.88;2.28;;;26.20;41.90;;;;;;3542424;40;20062;-66
2021/07/30 10:48:31;;;;;;;6.80;2.13;;;26.00;42.30;;;;;;3542418;40;20030;-68
2021/07/30 10:51:02;;;;;;;6.80;2.50;;;25.90;42.20;;;;;;3542584;40;20038;-68
2021/07/30 10:53:33;;;;;;;7.82;2.30;;;25.80;43.50;;;;;;3540969;40;20026;-68
2021/07/30 10:56:00;;;;;;;4.63;2.30;;;25.80;44.40;;;;;;3542527;40;20416;-68
2021/07/30 10:58:44;;;;;;;10.85;2.03;;;25.80;43.50;;;;;;3542486;40;20026;-68
2021/07/30 11:01:11;;;;;;;7.88;2.20;;;25.80;42.80;;;;;;3542186;40;20070;-68
2021/07/30 11:03:50;;;;;;;8.75;2.60;;;26.00;42.40;;;;;;3541794;40;20043;-68
2021/07/30 11:06:38;;;;;;;3.60;1.83;;;26.30;41.30;;;;;;3542272;40;20039;-67
2021/07/30 11:09:04;;;;;;;5.80;2.42;;;26.40;41.90;;;;;;3537116;40;20046;-68
2021/07/30 11:11:52;;;;;;;9.40;1.88;;;26.40;42.50;;;;;;3542167;40;20047;-68
2021/07/30 11:14:24;;;;;;;6.72;2.03;;;26.40;42.60;;;;;;3542660;40;20581;-68
2021/07/30 11:16:52;;;;;;;4.50;1.80;;;26.20;43.10;;;;;;3541745;40;20034;-68
2021/07/30 11:19:23;;;;;;;8.90;2.70;;;26.10;42.10;;;;;;3541084;40;20348;-68
2021/07/30 11:21:50;;;;;;;3.88;2.20;;;25.90;43.50;;;;;;3540860;40;20041;-68
2021/07/30 11:24:16;;;;;;;7.43;2.15;;;25.80;43.70;;;;;;3541402;40;20741;-69
2021/07/30 11:26:42;;;;;;;7.15;1.98;;;25.80;42.70;;;;;;3541412;40;20034;-68
2021/07/30 11:29:10;;;;;;;4.60;2.10;;;25.60;43.30;;;;;;3541647;40;20053;-68
2021/07/30 11:31:54;;;;;;;8.90;1.92;;;25.60;43.70;;;;;;3541649;40;20114;-69
2021/07/30 11:34:39;;;;;;;3.80;1.85;;;25.60;43.70;;;;;;3540759;40;20026;-68
2021/07/30 11:37:07;;;;;;;5.63;2.33;;;25.60;43.60;;;;;;3540410;40;20062;-69
2021/07/30 11:39:39;;;;;;;5.55;2.35;;;25.60;43.70;;;;;;3541073;40;20274;-69
2021/07/30 11:42:13;;;;;;;8.48;1.88;;;25.50;43.60;;;;;;3541288;40;20105;-68
2021/07/30 11:44:46;;;;;;;5.07;1.67;;;25.50;44.10;;;;;;3540811;40;20053;-68
2021/07/30 11:47:13;;;;;;;4.55;2.10;;;25.80;45.00;;;;;;3540446;40;20042;-68
2021/07/30 11:49:40;;;;;;;6.35;3.10;;;25.90;44.30;;;;;;3539776;40;20435;-68
2021/07/30 11:52:10;;;;;;;5.03;2.72;;;26.10;44.20;;;;;;3541019;40;20319;-69
2021/07/30 11:54:35;;;;;;;7.28;2.10;;;26.10;43.40;;;;;;3541249;40;20053;-70
2021/07/30 11:57:02;;;;;;;5.93;2.15;;;26.00;43.70;;;;;;3540032;40;20034;-69
2021/07/30 11:59:43;;;;;;;7.22;2.30;;;25.80;43.00;;;;;;3540317;40;20231;-69
2021/07/30 12:02:09;;;;;;;6.25;1.98;;;25.80;42.80;;;;;;3541156;40;20483;-68
2021/07/30 12:04:35;;;;;;;4.45;2.22;;;25.80;43.50;;;;;;3545652;40;20711;-70
2021/07/30 12:07:30;;;;;;;6.55;1.98;;;25.90;43.60;;;;;;3540927;40;20038;-70
2021/07/30 12:10:00;;;;;;;6.32;2.72;;;25.70;44.00;;;;;;3539637;40;20054;-69
2021/07/30 12:12:32;;;;;;;5.63;2.17;;;25.80;44.00;;;;;;3541700;40;20037;-68
2021/07/30 12:14:59;;;;;;;4.75;2.00;;;25.80;44.20;;;;;;3540885;40;20049;-68
2021/07/30 12:17:32;;;;;;;5.63;2.20;;;25.90;43.30;;;;;;3539950;40;20483;-70
2021/07/30 12:20:01;;;;;;;4.90;1.92;;;26.00;43.30;;;;;;3541230;40;20065;-69
2021/07/30 12:22:47;;;;;;;7.40;2.13;;;26.10;43.70;;;;;;3541312;40;20038;-69
2021/07/30 12:25:18;;;;;;;6.57;1.80;;;26.20;44.50;;;;;;3540934;40;20097;-68
2021/07/30 12:27:44;;;;;;;5.07;2.55;;;26.20;44.20;;;;;;3541601;40;20440;-69
2021/07/30 12:30:27;;;;;;;7.38;2.17;;;26.40;43.90;;;;;;3541126;40;20042;-69
2021/07/30 12:32:52;;;;;;;4.38;1.90;;;26.60;42.40;;;;;;3540564;40;20391;-68
2021/07/30 12:35:18;;;;;;;7.10;2.50;;;26.60;43.20;;;;;;3541535;40;20043;-68
2021/07/30 12:38:05;;;;;;;7.43;2.05;;;26.50;44.20;;;;;;3542305;40;20201;-68
2021/07/30 12:40:31;;;;;;;4.20;2.00;;;26.60;43.20;;;;;;3541490;40;20054;-68
2021/07/30 12:43:18;;;;;;;5.90;1.65;;;26.60;43.10;;;;;;3542196;40;20042;-69
2021/07/30 12:45:47;;;;;;;4.35;1.90;;;26.60;42.90;;;;;;3541710;40;20147;-69
2021/07/30 12:48:20;;;;;;;8.38;2.25;;;26.70;44.30;;;;;;3540792;40;20039;-69
2021/07/30 12:50:46;;;;;;;3.70;1.98;;;26.70;43.70;;;;;;3540483;40;20022;-69